Time;durP1;ratioP1;P1;durP2;ratioP2;P2;SDS_P1;SDS_P2;PMS_P1;PMS_P2;Temp;Humidity;BMP_temperature;BMP_pressure;BME280_temperature;BME280_humidity;BME280_pressure;Samples;Min_cycle;Max_cycle;Signal;HPM_P1;HPM_P2
2023/12/22 00:00:32;;;;;;;3.15;1.08;;;;;;;;;;5060500;28;20292;-73
2023/12/22 00:02:59;;;;;;;3.67;1.10;;;;;;;;;;5021386;28;20274;-72
2023/12/22 00:05:25;;;;;;;2.88;0.88;;;;;;;;;;5044761;28;20722;-72
2023/12/22 00:07:53;;;;;;;4.18;1.40;;;;;;;;;;5024940;28;20739;-74
2023/12/22 00:10:19;;;;;;;1.15;0.85;;;;;;;;;;5045428;28;20204;-73
2023/12/22 00:12:46;;;;;;;1.83;0.90;;;;;;;;;;5018870;28;20650;-74
2023/12/22 00:15:12;;;;;;;3.03;0.90;;;;;;;;;;5022667;28;20226;-74
2023/12/22 00:17:38;;;;;;;3.83;1.10;;;;;;;;;;5050014;28;20337;-74
2023/12/22 00:20:05;;;;;;;3.30;0.90;;;;;;;;;;5037864;28;20218;-72
2023/12/22 00:22:31;;;;;;;2.58;1.15;;;;;;;;;;5038339;28;20206;-72
2023/12/22 00:24:59;;;;;;;2.65;0.95;;;;;;;;;;5028844;28;20272;-73
2023/12/22 00:27:25;;;;;;;2.35;0.85;;;;;;;;;;5049719;28;20219;-73
2023/12/22 00:29:51;;;;;;;4.28;1.40;;;;;;;;;;5030765;28;20207;-72
2023/12/22 00:32:18;;;;;;;3.72;1.27;;;;;;;;;;5035958;28;20207;-71
2023/12/22 00:34:44;;;;;;;4.65;1.67;;;;;;;;;;5046522;28;20211;-74
2023/12/22 00:37:12;;;;;;;4.13;1.45;;;;;;;;;;5020073;28;20215;-74
2023/12/22 00:39:38;;;;;;;3.80;1.33;;;;;;;;;;5032391;28;20278;-72
2023/12/22 00:42:06;;;;;;;3.55;1.30;;;;;;;;;;5035856;28;20226;-74
2023/12/22 00:44:32;;;;;;;4.78;1.25;;;;;;;;;;5021094;28;20203;-72
2023/12/22 00:46:58;;;;;;;7.18;1.48;;;;;;;;;;5046662;28;20200;-72
2023/12/22 00:49:24;;;;;;;9.80;1.27;;;;;;;;;;5116240;28;20184;-73
2023/12/22 00:51:51;;;;;;;4.10;1.08;;;;;;;;;;5031284;28;20183;-74
2023/12/22 00:54:17;;;;;;;2.33;0.82;;;;;;;;;;5014676;28;20215;-74
2023/12/22 00:56:43;;;;;;;3.75;1.00;;;;;;;;;;5005290;28;20230;-73
2023/12/22 00:59:11;;;;;;;3.80;0.88;;;;;;;;;;5033618;28;20200;-71
2023/12/22 01:01:37;;;;;;;2.58;0.98;;;;;;;;;;5089411;28;20207;-73
2023/12/22 01:04:03;;;;;;;2.38;0.90;;;;;;;;;;5087824;28;20252;-74
2023/12/22 01:06:29;;;;;;;3.28;0.88;;;;;;;;;;5087455;28;20276;-72
2023/12/22 01:08:56;;;;;;;1.58;0.82;;;;;;;;;;5086950;28;20212;-72
2023/12/22 01:11:22;;;;;;;1.63;0.70;;;;;;;;;;5087250;28;20204;-72
2023/12/22 01:13:48;;;;;;;2.47;0.85;;;;;;;;;;5089822;28;20227;-75
2023/12/22 01:16:18;;;;;;;2.33;0.70;;;;;;;;;;5093077;28;20788;-75
2023/12/22 01:18:44;;;;;;;2.75;0.85;;;;;;;;;;5090909;28;20215;-75
2023/12/22 01:21:10;;;;;;;2.10;1.05;;;;;;;;;;5090024;28;20196;-74
2023/12/22 01:23:36;;;;;;;1.40;0.82;;;;;;;;;;5090206;28;20523;-74
2023/12/22 01:26:03;;;;;;;2.03;1.02;;;;;;;;;;5090139;28;20219;-73
2023/12/22 01:28:29;;;;;;;1.00;0.90;;;;;;;;;;5090373;28;20226;-73
2023/12/22 01:30:55;;;;;;;1.63;0.98;;;;;;;;;;5090659;28;20256;-73
2023/12/22 01:33:23;;;;;;;3.80;0.90;;;;;;;;;;5091415;28;20622;-73
2023/12/22 01:35:50;;;;;;;3.70;1.10;;;;;;;;;;5092743;28;20224;-73
2023/12/22 01:38:16;;;;;;;1.65;0.98;;;;;;;;;;5092961;28;20238;-73
2023/12/22 01:40:42;;;;;;;8.27;1.13;;;;;;;;;;5092543;28;20257;-73
2023/12/22 01:43:08;;;;;;;6.75;1.30;;;;;;;;;;5092940;28;20485;-73
2023/12/22 01:45:35;;;;;;;3.22;1.10;;;;;;;;;;5093112;28;20322;-73
2023/12/22 01:48:01;;;;;;;3.42;0.90;;;;;;;;;;5093106;28;20250;-73
2023/12/22 01:50:29;;;;;;;2.72;1.15;;;;;;;;;;5092632;28;20200;-74
2023/12/22 01:52:55;;;;;;;2.25;1.10;;;;;;;;;;5092460;28;20332;-74
2023/12/22 01:55:22;;;;;;;3.60;1.15;;;;;;;;;;5092493;28;20242;-73
2023/12/22 01:57:48;;;;;;;5.53;0.98;;;;;;;;;;5092600;28;20207;-73
2023/12/22 02:00:15;;;;;;;4.50;0.80;;;;;;;;;;5092465;28;20668;-73
2023/12/22 02:02:42;;;;;;;3.35;0.80;;;;;;;;;;5092419;28;20199;-73
2023/12/22 02:05:11;;;;;;;2.53;0.80;;;;;;;;;;5092258;28;20224;-73
2023/12/22 02:07:39;;;;;;;4.82;1.17;;;;;;;;;;5095024;28;20195;-73
2023/12/22 02:10:06;;;;;;;2.03;0.77;;;;;;;;;;5098931;28;20195;-73
2023/12/22 02:12:32;;;;;;;2.88;0.95;;;;;;;;;;5092495;28;20196;-73
2023/12/22 02:14:59;;;;;;;5.25;0.70;;;;;;;;;;5092332;28;20220;-73
2023/12/22 02:17:26;;;;;;;2.38;0.90;;;;;;;;;;5092167;28;20733;-73
2023/12/22 02:19:55;;;;;;;2.47;1.08;;;;;;;;;;5092320;28;20195;-73
2023/12/22 02:22:21;;;;;;;2.13;0.80;;;;;;;;;;5092073;28;20284;-73
2023/12/22 02:24:49;;;;;;;3.28;0.70;;;;;;;;;;5092324;28;20276;-73
2023/12/22 02:27:22;;;;;;;1.58;0.60;;;;;;;;;;5092576;28;20199;-73
2023/12/22 02:29:50;;;;;;;4.13;0.90;;;;;;;;;;5092174;28;20249;-73
2023/12/22 02:32:22;;;;;;;3.05;1.00;;;;;;;;;;5092136;28;20204;-73
2023/12/22 02:34:50;;;;;;;1.70;0.55;;;;;;;;;;5092012;28;20640;-73
2023/12/22 02:37:17;;;;;;;2.38;0.50;;;;;;;;;;5092125;28;20451;-73
2023/12/22 02:39:43;;;;;;;3.20;0.70;;;;;;;;;;5092021;28;20212;-73
2023/12/22 02:42:11;;;;;;;1.45;0.70;;;;;;;;;;5092302;28;20219;-73
2023/12/22 02:44:38;;;;;;;1.48;0.73;;;;;;;;;;5091977;28;20192;-73
2023/12/22 02:47:05;;;;;;;1.17;0.80;;;;;;;;;;5092130;28;20207;-73
2023/12/22 02:49:31;;;;;;;2.60;0.80;;;;;;;;;;5091925;28;20569;-73
2023/12/22 02:51:57;;;;;;;3.53;1.00;;;;;;;;;;5092161;28;20208;-73
2023/12/22 02:54:23;;;;;;;4.07;0.80;;;;;;;;;;5091824;28;20231;-73
2023/12/22 02:56:49;;;;;;;5.75;0.93;;;;;;;;;;5091828;28;20228;-73
2023/12/22 02:59:17;;;;;;;4.28;0.98;;;;;;;;;;5091949;28;20204;-73
2023/12/22 03:01:43;;;;;;;1.65;0.90;;;;;;;;;;5091788;28;20253;-73
2023/12/22 03:04:09;;;;;;;0.93;0.65;;;;;;;;;;5091625;28;20252;-73
2023/12/22 03:06:36;;;;;;;3.65;1.00;;;;;;;;;;5091923;28;20227;-72
2023/12/22 03:09:02;;;;;;;2.35;1.00;;;;;;;;;;5091907;28;20393;-73
2023/12/22 03:11:28;;;;;;;5.25;1.02;;;;;;;;;;5092021;28;20803;-73
2023/12/22 03:13:55;;;;;;;4.70;1.00;;;;;;;;;;5091737;28;20220;-73
2023/12/22 03:16:22;;;;;;;3.15;1.20;;;;;;;;;;5092080;28;20277;-73
2023/12/22 03:18:48;;;;;;;4.38;1.00;;;;;;;;;;5092111;28;20204;-73
2023/12/22 03:21:17;;;;;;;0.98;0.80;;;;;;;;;;5091861;28;20203;-73
2023/12/22 03:23:43;;;;;;;1.20;1.00;;;;;;;;;;5094241;28;20595;-73
2023/12/22 03:26:09;;;;;;;7.45;1.35;;;;;;;;;;5094866;28;20645;-73
2023/12/22 03:28:36;;;;;;;2.85;0.70;;;;;;;;;;5095134;28;20733;-72
2023/12/22 03:31:02;;;;;;;3.70;1.02;;;;;;;;;;5094882;28;20664;-73
2023/12/22 03:33:30;;;;;;;1.75;1.05;;;;;;;;;;5095137;28;20207;-73
2023/12/22 03:35:56;;;;;;;4.47;1.20;;;;;;;;;;5095389;28;20289;-73
2023/12/22 03:38:22;;;;;;;3.95;1.13;;;;;;;;;;5095166;28;20200;-73
2023/12/22 03:40:48;;;;;;;1.33;0.73;;;;;;;;;;5094994;28;20277;-73
2023/12/22 03:43:15;;;;;;;1.88;1.00;;;;;;;;;;5094373;28;20199;-73
2023/12/22 03:45:41;;;;;;;5.68;1.00;;;;;;;;;;5094925;28;20216;-73
2023/12/22 03:48:07;;;;;;;4.88;1.33;;;;;;;;;;5094908;28;20660;-73
2023/12/22 03:50:35;;;;;;;2.22;0.80;;;;;;;;;;5094461;28;20207;-73
2023/12/22 03:53:01;;;;;;;3.00;0.98;;;;;;;;;;5094639;28;20248;-73
2023/12/22 03:55:27;;;;;;;4.65;0.80;;;;;;;;;;5094402;28;20227;-73
2023/12/22 03:57:54;;;;;;;1.63;0.75;;;;;;;;;;5094040;28;20206;-73
2023/12/22 04:00:20;;;;;;;6.43;1.10;;;;;;;;;;5093521;28;20257;-73
2023/12/22 04:02:46;;;;;;;3.20;1.10;;;;;;;;;;5094420;28;20200;-73
2023/12/22 04:05:12;;;;;;;3.17;0.90;;;;;;;;;;5094328;28;20211;-73
2023/12/22 04:07:40;;;;;;;4.38;1.42;;;;;;;;;;5094737;28;20261;-73
2023/12/22 04:10:07;;;;;;;1.85;1.23;;;;;;;;;;5094666;28;20200;-73
2023/12/22 04:12:33;;;;;;;2.28;1.05;;;;;;;;;;5094748;28;20215;-73
2023/12/22 04:14:59;;;;;;;5.38;1.50;;;;;;;;;;5096382;28;20227;-73
2023/12/22 04:17:26;;;;;;;3.53;1.10;;;;;;;;;;5100055;28;20204;-73
2023/12/22 04:19:52;;;;;;;4.07;1.23;;;;;;;;;;5094495;28;20613;-73
2023/12/22 04:22:18;;;;;;;2.65;1.10;;;;;;;;;;5094562;28;20203;-73
2023/12/22 04:24:46;;;;;;;4.18;1.20;;;;;;;;;;5094074;28;20196;-73
2023/12/22 04:27:12;;;;;;;2.80;1.00;;;;;;;;;;5094320;28;20638;-73
2023/12/22 04:29:39;;;;;;;5.45;1.30;;;;;;;;;;5093879;28;20199;-73
2023/12/22 04:32:05;;;;;;;5.75;1.60;;;;;;;;;;5094102;28;20200;-73
2023/12/22 04:34:31;;;;;;;3.38;1.27;;;;;;;;;;5093152;28;20307;-73
2023/12/22 04:36:58;;;;;;;6.47;1.65;;;;;;;;;;5094157;28;20200;-73
2023/12/22 04:39:24;;;;;;;2.53;1.20;;;;;;;;;;5094056;28;20207;-73
2023/12/22 04:41:51;;;;;;;6.45;1.42;;;;;;;;;;5094087;28;20477;-73
2023/12/22 04:44:18;;;;;;;4.05;1.20;;;;;;;;;;5093499;28;20249;-73
2023/12/22 04:46:44;;;;;;;2.38;1.23;;;;;;;;;;5093734;28;20216;-73
2023/12/22 04:49:10;;;;;;;4.55;1.33;;;;;;;;;;5093716;28;20249;-73
2023/12/22 04:51:36;;;;;;;4.25;1.15;;;;;;;;;;5093855;28;20265;-72
2023/12/22 04:54:03;;;;;;;1.58;1.00;;;;;;;;;;5093545;28;20211;-73
2023/12/22 04:56:29;;;;;;;4.40;1.20;;;;;;;;;;5093465;28;20231;-73
2023/12/22 04:58:57;;;;;;;2.40;0.90;;;;;;;;;;5093274;28;20711;-73
2023/12/22 05:01:23;;;;;;;4.32;1.33;;;;;;;;;;5093284;28;20578;-73
2023/12/22 05:03:49;;;;;;;3.15;1.13;;;;;;;;;;5093367;28;20721;-73
2023/12/22 05:06:15;;;;;;;3.40;1.15;;;;;;;;;;5093387;28;20684;-72
2023/12/22 05:08:41;;;;;;;2.50;1.17;;;;;;;;;;5093449;28;20196;-73
2023/12/22 05:11:08;;;;;;;3.20;0.88;;;;;;;;;;5093198;28;20233;-73
2023/12/22 05:13:34;;;;;;;3.55;1.08;;;;;;;;;;5093113;28;20333;-73
2023/12/22 05:16:02;;;;;;;4.18;0.82;;;;;;;;;;5092847;28;20227;-73
2023/12/22 05:18:30;;;;;;;1.60;0.90;;;;;;;;;;5093213;28;20660;-73
2023/12/22 05:20:56;;;;;;;4.32;0.82;;;;;;;;;;5093282;28;20713;-73
2023/12/22 05:23:23;;;;;;;2.05;0.88;;;;;;;;;;5093414;28;20578;-73
2023/12/22 05:25:49;;;;;;;3.55;0.85;;;;;;;;;;5092926;28;20215;-73
2023/12/22 05:28:15;;;;;;;6.90;1.40;;;;;;;;;;5093195;28;20222;-73
2023/12/22 05:30:41;;;;;;;6.28;1.50;;;;;;;;;;5092960;28;20598;-73
2023/12/22 05:33:09;;;;;;;4.45;1.27;;;;;;;;;;5092999;28;20199;-73
2023/12/22 05:35:35;;;;;;;8.52;1.55;;;;;;;;;;5092732;28;20319;-73
2023/12/22 05:38:01;;;;;;;5.53;1.80;;;;;;;;;;5092743;28;20204;-73
2023/12/22 05:40:28;;;;;;;8.65;1.90;;;;;;;;;;5092363;28;20260;-73
2023/12/22 05:42:54;;;;;;;12.02;1.50;;;;;;;;;;5092663;28;20675;-73
2023/12/22 05:45:20;;;;;;;8.77;2.17;;;;;;;;;;5092706;28;20229;-73
2023/12/22 05:47:46;;;;;;;6.18;1.60;;;;;;;;;;5092730;28;20664;-73
2023/12/22 05:50:14;;;;;;;6.25;1.77;;;;;;;;;;5092689;28;20255;-73
2023/12/22 05:52:40;;;;;;;7.07;1.95;;;;;;;;;;5092621;28;20235;-73
2023/12/22 05:55:08;;;;;;;13.32;2.35;;;;;;;;;;5092078;28;20277;-73
2023/12/22 05:57:34;;;;;;;10.18;2.00;;;;;;;;;;5092713;28;20210;-73
2023/12/22 06:00:00;;;;;;;8.10;1.92;;;;;;;;;;5092226;28;20253;-73
2023/12/22 06:02:27;;;;;;;10.48;2.10;;;;;;;;;;5092618;28;20203;-73
2023/12/22 06:04:53;;;;;;;7.25;2.00;;;;;;;;;;5092662;28;20222;-73
2023/12/22 06:07:21;;;;;;;5.15;1.95;;;;;;;;;;5092407;28;20200;-73
2023/12/22 06:09:47;;;;;;;9.75;1.70;;;;;;;;;;5092334;28;20215;-73
2023/12/22 06:12:13;;;;;;;5.68;1.70;;;;;;;;;;5092480;28;20207;-73
2023/12/22 06:14:39;;;;;;;6.95;1.50;;;;;;;;;;5091787;28;20215;-73
2023/12/22 06:17:06;;;;;;;6.72;2.05;;;;;;;;;;5092478;28;20204;-73
2023/12/22 06:19:32;;;;;;;7.60;1.98;;;;;;;;;;5092179;28;20301;-73
2023/12/22 06:21:59;;;;;;;3.83;1.55;;;;;;;;;;5092199;28;20613;-73
2023/12/22 06:24:27;;;;;;;3.38;1.60;;;;;;;;;;5092632;28;20200;-73
2023/12/22 06:26:53;;;;;;;4.93;1.58;;;;;;;;;;5092391;28;20215;-73
2023/12/22 06:29:19;;;;;;;6.13;1.77;;;;;;;;;;5092048;28;20260;-73
2023/12/22 06:31:50;;;;;;;4.30;1.35;;;;;;;;;;5092078;28;20195;-73
2023/12/22 06:34:16;;;;;;;7.45;2.10;;;;;;;;;;5091882;28;20280;-73
2023/12/22 06:36:42;;;;;;;7.82;1.90;;;;;;;;;;5091810;28;20269;-73
2023/12/22 06:39:09;;;;;;;6.10;1.70;;;;;;;;;;5091863;28;20196;-73
2023/12/22 06:41:36;;;;;;;7.22;2.15;;;;;;;;;;5092024;28;20261;-73
2023/12/22 06:44:02;;;;;;;8.85;1.67;;;;;;;;;;5091766;28;20200;-73
2023/12/22 06:46:30;;;;;;;8.38;1.77;;;;;;;;;;5091935;28;20219;-73
2023/12/22 06:48:56;;;;;;;4.78;1.40;;;;;;;;;;5091846;28;20242;-73
2023/12/22 06:51:23;;;;;;;5.32;1.67;;;;;;;;;;5091964;28;20200;-73
2023/12/22 06:53:50;;;;;;;7.07;1.88;;;;;;;;;;5091828;28;20203;-65
2023/12/22 06:56:17;;;;;;;3.97;1.35;;;;;;;;;;5091386;28;20224;-64
2023/12/22 06:58:46;;;;;;;8.65;1.70;;;;;;;;;;5094769;28;20245;-64
2023/12/22 07:01:12;;;;;;;4.82;1.60;;;;;;;;;;5095329;28;20276;-65
2023/12/22 07:03:38;;;;;;;4.57;1.65;;;;;;;;;;5095134;28;20248;-65
2023/12/22 07:06:05;;;;;;;6.55;2.03;;;;;;;;;;5095659;28;20223;-64
2023/12/22 07:08:31;;;;;;;3.08;1.60;;;;;;;;;;5095501;28;20212;-65
2023/12/22 07:10:57;;;;;;;6.15;1.63;;;;;;;;;;5095214;28;20233;-66
2023/12/22 07:13:23;;;;;;;7.53;1.70;;;;;;;;;;5095637;28;20245;-65
2023/12/22 07:15:51;;;;;;;3.42;1.40;;;;;;;;;;5095442;28;20277;-65
2023/12/22 07:18:16;;;;;;;7.43;1.20;;;;;;;;;;5094992;28;20199;-65
2023/12/22 07:20:42;;;;;;;2.45;0.88;;;;;;;;;;5095556;28;20206;-65
2023/12/22 07:23:10;;;;;;;6.05;1.48;;;;;;;;;;5095046;28;20568;-65
2023/12/22 07:25:38;;;;;;;2.05;0.90;;;;;;;;;;5095066;28;20226;-65
2023/12/22 07:28:05;;;;;;;5.57;1.55;;;;;;;;;;5094983;28;20200;-65
2023/12/22 07:30:31;;;;;;;5.38;1.45;;;;;;;;;;5094706;28;20282;-65
2023/12/22 07:32:58;;;;;;;4.30;1.40;;;;;;;;;;5094585;28;20203;-64
2023/12/22 07:35:25;;;;;;;9.95;1.48;;;;;;;;;;5094747;28;20261;-65
2023/12/22 07:37:51;;;;;;;6.07;1.70;;;;;;;;;;5094840;28;20260;-65
2023/12/22 07:40:17;;;;;;;4.22;1.60;;;;;;;;;;5095226;28;20273;-64
2023/12/22 07:42:43;;;;;;;9.70;1.95;;;;;;;;;;5095704;28;20245;-65
2023/12/22 07:45:10;;;;;;;5.10;1.40;;;;;;;;;;5096211;28;20249;-65
2023/12/22 07:47:37;;;;;;;5.70;1.50;;;;;;;;;;5095443;28;20203;-64
2023/12/22 07:50:08;;;;;;;3.85;1.38;;;;;;;;;;5094602;28;20196;-64
2023/12/22 07:52:37;;;;;;;5.22;1.38;;;;;;;;;;5094706;28;20210;-64
2023/12/22 07:55:03;;;;;;;3.65;1.40;;;;;;;;;;5094346;28;20223;-64
2023/12/22 07:57:30;;;;;;;4.20;1.52;;;;;;;;;;5094280;28;20234;-65
2023/12/22 07:59:56;;;;;;;4.57;1.33;;;;;;;;;;5094118;28;20222;-64
2023/12/22 08:02:23;;;;;;;4.25;1.75;;;;;;;;;;5094433;28;20236;-65
2023/12/22 08:04:50;;;;;;;4.88;1.52;;;;;;;;;;5094204;28;20282;-65
2023/12/22 08:07:17;;;;;;;5.00;1.63;;;;;;;;;;5094267;28;20204;-65
2023/12/22 08:09:44;;;;;;;6.90;1.45;;;;;;;;;;5092835;28;20578;-65
2023/12/22 08:12:10;;;;;;;2.53;1.08;;;;;;;;;;5093868;28;20609;-64
2023/12/22 08:14:36;;;;;;;5.35;1.23;;;;;;;;;;5093873;28;20688;-66
2023/12/22 08:17:02;;;;;;;3.42;0.85;;;;;;;;;;5094319;28;20219;-65
2023/12/22 08:19:29;;;;;;;3.95;1.38;;;;;;;;;;5094105;28;20196;-65
2023/12/22 08:21:55;;;;;;;3.80;1.77;;;;;;;;;;5094442;28;20204;-65
2023/12/22 08:24:23;;;;;;;5.55;1.40;;;;;;;;;;5094006;28;20200;-65
2023/12/22 08:26:49;;;;;;;6.97;1.50;;;;;;;;;;5093872;28;20220;-64
2023/12/22 08:29:16;;;;;;;3.08;1.33;;;;;;;;;;5093743;28;20212;-65
2023/12/22 08:31:43;;;;;;;5.10;1.58;;;;;;;;;;5093961;28;20619;-65
2023/12/22 08:34:09;;;;;;;5.57;1.60;;;;;;;;;;5093945;28;20287;-66
2023/12/22 08:36:36;;;;;;;3.55;1.60;;;;;;;;;;5093889;28;20228;-65
2023/12/22 08:39:02;;;;;;;9.23;2.42;;;;;;;;;;5093789;28;20203;-66
2023/12/22 08:41:29;;;;;;;6.68;2.03;;;;;;;;;;5093642;28;20200;-65
2023/12/22 08:43:56;;;;;;;9.23;2.47;;;;;;;;;;5094128;28;20203;-64
2023/12/22 08:46:24;;;;;;;8.68;2.47;;;;;;;;;;5094177;28;20269;-65
2023/12/22 08:48:50;;;;;;;8.27;2.50;;;;;;;;;;5094108;28;20253;-65
2023/12/22 08:51:17;;;;;;;12.43;2.28;;;;;;;;;;5093625;28;20204;-65
2023/12/22 08:53:43;;;;;;;7.90;2.15;;;;;;;;;;5093526;28;20207;-65
2023/12/22 08:56:09;;;;;;;12.60;2.55;;;;;;;;;;5093372;28;20276;-66
2023/12/22 08:58:37;;;;;;;14.43;2.65;;;;;;;;;;5093810;28;20207;-65
2023/12/22 09:01:03;;;;;;;9.18;2.10;;;;;;;;;;5093544;28;20199;-64
2023/12/22 09:03:30;;;;;;;11.77;1.92;;;;;;;;;;5093464;28;20208;-64
2023/12/22 09:05:57;;;;;;;11.20;2.22;;;;;;;;;;5093237;28;20245;-65
2023/12/22 09:08:23;;;;;;;7.55;1.75;;;;;;;;;;5093452;28;20257;-65
2023/12/22 09:10:50;;;;;;;12.80;2.20;;;;;;;;;;5092987;28;20199;-65
2023/12/22 09:13:16;;;;;;;7.20;1.85;;;;;;;;;;5093195;28;20751;-65
2023/12/22 09:15:46;;;;;;;6.85;1.40;;;;;;;;;;5092931;28;20637;-65
2023/12/22 09:18:13;;;;;;;9.00;1.80;;;;;;;;;;5093146;28;20672;-65
2023/12/22 09:20:40;;;;;;;10.18;2.20;;;;;;;;;;5092875;28;20283;-64
2023/12/22 09:23:08;;;;;;;7.05;1.90;;;;;;;;;;5093165;28;20196;-65
2023/12/22 09:25:34;;;;;;;10.43;2.13;;;;;;;;;;5092883;28;20216;-65
2023/12/22 09:28:00;;;;;;;7.53;1.98;;;;;;;;;;5093235;28;20245;-65
2023/12/22 09:30:26;;;;;;;10.23;2.30;;;;;;;;;;5093067;28;20249;-65
2023/12/22 09:32:54;;;;;;;11.27;2.58;;;;;;;;;;5092940;28;20207;-64
2023/12/22 09:35:21;;;;;;;12.52;2.20;;;;;;;;;;5092858;28;20223;-64
2023/12/22 09:37:48;;;;;;;13.10;2.92;;;;;;;;;;5093388;28;20196;-64
2023/12/22 09:40:14;;;;;;;12.85;2.72;;;;;;;;;;5093869;28;20214;-64
2023/12/22 09:42:41;;;;;;;18.20;3.05;;;;;;;;;;5095492;28;20211;-64
2023/12/22 09:45:09;;;;;;;8.15;2.30;;;;;;;;;;5092816;28;20224;-65
2023/12/22 09:47:36;;;;;;;9.70;2.40;;;;;;;;;;5093491;28;20196;-64
2023/12/22 09:50:04;;;;;;;13.45;3.00;;;;;;;;;;5092779;28;20281;-65
2023/12/22 09:52:32;;;;;;;13.93;2.78;;;;;;;;;;5092323;28;20224;-65
2023/12/22 09:54:59;;;;;;;12.73;2.60;;;;;;;;;;5092326;28;20276;-65
2023/12/22 09:57:26;;;;;;;12.73;2.90;;;;;;;;;;5092470;28;20277;-65
2023/12/22 09:59:54;;;;;;;17.15;4.07;;;;;;;;;;5092378;28;20199;-65
2023/12/22 10:02:20;;;;;;;11.48;2.88;;;;;;;;;;5092468;28;20265;-65
2023/12/22 10:04:47;;;;;;;14.13;3.00;;;;;;;;;;5092088;28;20203;-65
2023/12/22 10:07:16;;;;;;;11.80;2.75;;;;;;;;;;5092460;28;20218;-65
2023/12/22 10:09:42;;;;;;;12.57;2.53;;;;;;;;;;5092280;28;20287;-65
2023/12/22 10:12:10;;;;;;;12.43;3.05;;;;;;;;;;5042961;28;20211;-66
2023/12/22 10:14:37;;;;;;;10.52;2.45;;;;;;;;;;4991462;28;20218;-64
2023/12/22 10:17:04;;;;;;;19.50;3.42;;;;;;;;;;4984515;28;20223;-64
2023/12/22 10:19:30;;;;;;;12.48;2.60;;;;;;;;;;5073624;28;20703;-64
2023/12/22 10:21:56;;;;;;;14.25;3.60;;;;;;;;;;5086534;28;20207;-64
2023/12/22 10:24:41;;;;;;;12.75;2.83;;;;;;;;;;5086293;28;20247;-64
2023/12/22 10:27:08;;;;;;;11.48;2.72;;;;;;;;;;5085998;28;20200;-66
2023/12/22 10:29:35;;;;;;;11.80;2.70;;;;;;;;;;5085358;28;20211;-64
2023/12/22 10:32:01;;;;;;;19.23;3.70;;;;;;;;;;4983504;28;20211;-65
2023/12/22 10:34:27;;;;;;;12.90;3.50;;;;;;;;;;5026242;28;20261;-64
2023/12/22 10:36:54;;;;;;;10.70;3.05;;;;;;;;;;5085881;28;20266;-65
2023/12/22 10:41:57;;;;;;;6.75;3.00;;;;;;;;;;5161734;22;20594;-65
2023/12/22 10:44:24;;;;;;;9.30;2.20;;;;;;;;;;5044526;28;20220;-64
2023/12/22 10:46:50;;;;;;;14.70;3.00;;;;;;;;;;5044346;28;20221;-65
2023/12/22 10:49:17;;;;;;;12.07;2.70;;;;;;;;;;5044591;28;20212;-66
2023/12/22 10:51:43;;;;;;;11.45;2.47;;;;;;;;;;5044924;28;20716;-66
2023/12/22 10:54:09;;;;;;;14.23;2.88;;;;;;;;;;5044722;28;20209;-65
2023/12/22 10:56:35;;;;;;;13.05;2.47;;;;;;;;;;5044770;28;20658;-66
2023/12/22 10:59:04;;;;;;;7.85;2.50;;;;;;;;;;5045455;28;20228;-65
2023/12/22 11:01:33;;;;;;;6.75;1.80;;;;;;;;;;5045842;28;20205;-66
2023/12/22 11:04:03;;;;;;;7.25;1.73;;;;;;;;;;5045470;28;20943;-64
2023/12/22 11:06:30;;;;;;;8.85;2.03;;;;;;;;;;5045822;28;20224;-65
2023/12/22 11:08:57;;;;;;;4.53;2.10;;;;;;;;;;5043830;28;20213;-64
2023/12/22 11:11:29;;;;;;;10.68;2.15;;;;;;;;;;5042825;28;20462;-66
2023/12/22 11:13:56;;;;;;;9.00;3.30;;;;;;;;;;5037428;28;20233;-65
2023/12/22 11:16:24;;;;;;;3.65;1.45;;;;;;;;;;5042749;28;20236;-65
2023/12/22 11:18:53;;;;;;;7.05;1.52;;;;;;;;;;5042967;28;20208;-65
2023/12/22 11:21:20;;;;;;;5.88;1.67;;;;;;;;;;5034655;28;20716;-67
2023/12/22 11:23:46;;;;;;;4.25;1.50;;;;;;;;;;5042929;28;20749;-65
2023/12/22 11:26:14;;;;;;;2.80;1.23;;;;;;;;;;5045070;28;20749;-65
2023/12/22 11:28:41;;;;;;;4.85;1.30;;;;;;;;;;5045861;28;20209;-64
2023/12/22 11:31:10;;;;;;;3.50;1.20;;;;;;;;;;5045491;28;20205;-64
2023/12/22 11:33:40;;;;;;;6.82;1.63;;;;;;;;;;5045253;28;20205;-64
2023/12/22 11:36:07;;;;;;;3.03;1.52;;;;;;;;;;5044597;28;20224;-64
2023/12/22 11:38:34;;;;;;;4.32;1.35;;;;;;;;;;5043466;28;20708;-64
2023/12/22 11:41:01;;;;;;;5.88;1.60;;;;;;;;;;5043267;28;20205;-64
2023/12/22 11:43:27;;;;;;;2.72;1.27;;;;;;;;;;5044572;28;20213;-64
2023/12/22 11:45:54;;;;;;;3.38;1.15;;;;;;;;;;5047093;28;20227;-64
2023/12/22 11:48:20;;;;;;;7.18;1.83;;;;;;;;;;5047101;28;20212;-64
2023/12/22 11:50:48;;;;;;;4.82;1.55;;;;;;;;;;5047519;28;20590;-64
2023/12/22 11:53:21;;;;;;;4.55;1.30;;;;;;;;;;5048235;28;20209;-64
2023/12/22 11:55:55;;;;;;;3.47;1.50;;;;;;;;;;5048364;28;20225;-64
2023/12/22 11:58:33;;;;;;;5.40;1.83;;;;;;;;;;5048518;28;20299;-64
2023/12/22 12:01:02;;;;;;;5.65;1.38;;;;;;;;;;5048115;28;20258;-64
2023/12/22 12:03:28;;;;;;;5.97;1.33;;;;;;;;;;5047790;28;20297;-64
2023/12/22 12:06:10;;;;;;;2.33;1.30;;;;;;;;;;5047833;28;20227;-64
2023/12/22 12:08:36;;;;;;;4.72;1.38;;;;;;;;;;5041390;28;20212;-63
2023/12/22 12:11:04;;;;;;;2.85;1.10;;;;;;;;;;5047819;28;20228;-64
2023/12/22 12:13:31;;;;;;;3.63;1.40;;;;;;;;;;5047822;28;20202;-64
2023/12/22 12:16:01;;;;;;;3.72;1.20;;;;;;;;;;5048001;28;20225;-65
2023/12/22 12:18:28;;;;;;;2.55;1.38;;;;;;;;;;5048142;28;20205;-65
2023/12/22 12:20:54;;;;;;;6.32;1.20;;;;;;;;;;5047985;28;20209;-64
2023/12/22 12:23:24;;;;;;;3.80;1.27;;;;;;;;;;5047702;28;20237;-65
2023/12/22 12:25:50;;;;;;;2.35;1.30;;;;;;;;;;5047903;28;20229;-65
2023/12/22 12:28:17;;;;;;;4.78;1.52;;;;;;;;;;5048020;28;20216;-65
2023/12/22 12:30:45;;;;;;;2.03;0.93;;;;;;;;;;5047798;28;20211;-65
2023/12/22 12:33:12;;;;;;;4.45;1.10;;;;;;;;;;5047311;28;20604;-65
2023/12/22 12:35:39;;;;;;;2.28;1.13;;;;;;;;;;5047752;28;20301;-65
2023/12/22 12:38:05;;;;;;;1.83;0.95;;;;;;;;;;5047630;28;20584;-65
2023/12/22 12:40:35;;;;;;;4.50;1.27;;;;;;;;;;5047312;28;20209;-65
2023/12/22 12:43:02;;;;;;;3.58;0.90;;;;;;;;;;5047621;28;20263;-65
2023/12/22 12:45:28;;;;;;;1.45;0.90;;;;;;;;;;5039463;28;20221;-65
2023/12/22 12:47:58;;;;;;;2.65;0.80;;;;;;;;;;5047786;28;20201;-65
2023/12/22 12:50:24;;;;;;;1.63;0.70;;;;;;;;;;5047359;28;20270;-65
2023/12/22 12:52:51;;;;;;;2.15;0.75;;;;;;;;;;5047349;28;20205;-65
2023/12/22 12:55:18;;;;;;;1.38;0.63;;;;;;;;;;5046548;28;20278;-65
2023/12/22 12:57:45;;;;;;;1.60;0.75;;;;;;;;;;5047624;28;20273;-65
2023/12/22 13:00:12;;;;;;;1.55;0.88;;;;;;;;;;5048415;28;20217;-65
2023/12/22 13:02:39;;;;;;;1.67;0.68;;;;;;;;;;5048994;28;20609;-64
2023/12/22 13:05:06;;;;;;;2.70;0.80;;;;;;;;;;5049542;28;20279;-65
2023/12/22 13:07:32;;;;;;;0.90;0.50;;;;;;;;;;5049280;28;20288;-66
2023/12/22 13:09:58;;;;;;;0.75;0.75;;;;;;;;;;5049232;28;20254;-66
2023/12/22 13:12:26;;;;;;;2.25;0.80;;;;;;;;;;5049135;28;20209;-67
2023/12/22 13:14:54;;;;;;;1.55;0.80;;;;;;;;;;5048642;28;20782;-65
2023/12/22 13:17:20;;;;;;;3.40;0.85;;;;;;;;;;5049324;28;20259;-66
2023/12/22 13:19:47;;;;;;;1.20;0.95;;;;;;;;;;5049177;28;20731;-64
2023/12/22 13:22:14;;;;;;;2.85;0.90;;;;;;;;;;5042837;28;20213;-65
2023/12/22 13:24:40;;;;;;;2.15;0.90;;;;;;;;;;5048786;28;20263;-66
2023/12/22 13:27:07;;;;;;;2.13;0.60;;;;;;;;;;5049281;28;20622;-66
2023/12/22 13:29:52;;;;;;;1.90;0.50;;;;;;;;;;5048981;28;20658;-66
2023/12/22 13:32:20;;;;;;;1.00;0.47;;;;;;;;;;5048957;28;20212;-66
2023/12/22 13:34:48;;;;;;;0.50;0.40;;;;;;;;;;5049405;28;20205;-66
2023/12/22 13:37:14;;;;;;;0.50;0.50;;;;;;;;;;5049257;28;20245;-65
2023/12/22 13:39:41;;;;;;;0.40;0.40;;;;;;;;;;5048848;28;20577;-66
2023/12/22 13:42:14;;;;;;;0.57;0.30;;;;;;;;;;5048681;28;20208;-66
2023/12/22 13:44:42;;;;;;;2.42;0.40;;;;;;;;;;5041412;28;20205;-66
2023/12/22 13:47:09;;;;;;;0.47;0.40;;;;;;;;;;5048532;28;20617;-66
2023/12/22 13:49:36;;;;;;;0.30;0.30;;;;;;;;;;5048444;28;20212;-66
2023/12/22 13:52:06;;;;;;;0.55;0.50;;;;;;;;;;5048794;28;20193;-65
2023/12/22 13:54:33;;;;;;;0.50;0.30;;;;;;;;;;5048720;28;20213;-66
2023/12/22 13:56:59;;;;;;;0.47;0.40;;;;;;;;;;5048522;28;20233;-66
2023/12/22 13:59:31;;;;;;;0.30;0.30;;;;;;;;;;5048363;28;20224;-65
2023/12/22 14:01:57;;;;;;;0.40;0.30;;;;;;;;;;5048415;28;20605;-65
2023/12/22 14:04:23;;;;;;;0.40;0.40;;;;;;;;;;5048002;28;20934;-65
2023/12/22 14:06:51;;;;;;;1.20;0.50;;;;;;;;;;5047531;28;20286;-66
2023/12/22 14:09:21;;;;;;;0.40;0.40;;;;;;;;;;5048364;28;20209;-63
2023/12/22 14:11:48;;;;;;;0.28;0.28;;;;;;;;;;5048609;28;20205;-64
2023/12/22 14:14:14;;;;;;;0.30;0.30;;;;;;;;;;5048077;28;20243;-63
2023/12/22 14:16:41;;;;;;;0.20;0.20;;;;;;;;;;5048063;28;20230;-63
2023/12/22 14:19:07;;;;;;;0.25;0.25;;;;;;;;;;5047938;28;20205;-63
2023/12/22 14:21:33;;;;;;;0.20;0.20;;;;;;;;;;5046694;28;20449;-63
2023/12/22 14:24:01;;;;;;;0.30;0.30;;;;;;;;;;5043464;28;20212;-62
2023/12/22 14:26:27;;;;;;;0.45;0.45;;;;;;;;;;5043640;28;20225;-63
2023/12/22 14:28:53;;;;;;;0.30;0.30;;;;;;;;;;5043500;28;20530;-63
2023/12/22 14:31:21;;;;;;;0.30;0.30;;;;;;;;;;5043604;28;20205;-62
2023/12/22 14:33:47;;;;;;;0.35;0.30;;;;;;;;;;5043359;28;20205;-62
2023/12/22 14:36:13;;;;;;;0.20;0.20;;;;;;;;;;5043634;28;20269;-63
2023/12/22 14:38:39;;;;;;;0.50;0.50;;;;;;;;;;5043478;28;20663;-64
2023/12/22 14:41:07;;;;;;;0.63;0.63;;;;;;;;;;5043107;28;20266;-65